sensor_id;sensor_type;location;lat;lon;timestamp;temperature;humidity
32400;DHT22;45045;45.440;9.178;2024-02-15T00:02:16;13.90;99.90
32400;DHT22;45045;45.440;9.178;2024-02-15T00:04:41;13.80;99.90
32400;DHT22;45045;45.440;9.178;2024-02-15T00:07:09;13.80;99.90
32400;DHT22;45045;45.440;9.178;2024-02-15T00:09:35;13.80;99.90
32400;DHT22;45045;45.440;9.178;2024-02-15T00:12:00;13.70;99.90
32400;DHT22;45045;45.440;9.178;2024-02-15T00:14:26;13.70;99.90
32400;DHT22;45045;45.440;9.178;2024-02-15T00:16:54;13.70;99.90
32400;DHT22;45045;45.440;9.178;2024-02-15T00:19:20;13.70;99.90
32400;DHT22;45045;45.440;9.178;2024-02-15T00:21:47;13.70;99.90
32400;DHT22;45045;45.440;9.178;2024-02-15T00:24:13;13.70;99.90
32400;DHT22;45045;45.440;9.178;2024-02-15T00:26:40;13.70;99.90
32400;DHT22;45045;45.440;9.178;2024-02-15T00:29:06;13.70;99.90
32400;DHT22;45045;45.440;9.178;2024-02-15T00:31:31;13.60;99.90
32400;DHT22;45045;45.440;9.178;2024-02-15T00:33:57;13.60;99.90
32400;DHT22;45045;45.440;9.178;2024-02-15T00:36:24;13.50;99.90
32400;DHT22;45045;45.440;9.178;2024-02-15T00:38:50;13.50;99.90
32400;DHT22;45045;45.440;9.178;2024-02-15T00:41:17;13.50;99.90
32400;DHT22;45045;45.440;9.178;2024-02-15T00:43:45;13.40;99.90
32400;DHT22;45045;45.440;9.178;2024-02-15T00:46:10;13.40;99.90
32400;DHT22;45045;45.440;9.178;2024-02-15T00:48:36;13.40;99.90
32400;DHT22;45045;45.440;9.178;2024-02-15T00:51:02;13.40;99.90
32400;DHT22;45045;45.440;9.178;2024-02-15T00:53:28;13.50;99.90
32400;DHT22;45045;45.440;9.178;2024-02-15T00:55:56;13.40;99.90
32400;DHT22;45045;45.440;9.178;2024-02-15T00:58:21;13.40;99.90
32400;DHT22;45045;45.440;9.178;2024-02-15T01:00:47;13.40;99.90
32400;DHT22;45045;45.440;9.178;2024-02-15T01:03:12;13.30;99.90
32400;DHT22;45045;45.440;9.178;2024-02-15T01:05:39;13.40;99.90
32400;DHT22;45045;45.440;9.178;2024-02-15T01:08:04;13.30;99.90
32400;DHT22;45045;45.440;9.178;2024-02-15T01:10:30;13.30;99.90
32400;DHT22;45045;45.440;9.178;2024-02-15T01:12:56;13.30;99.90
32400;DHT22;45045;45.440;9.178;2024-02-15T01:15:21;13.30;99.90
32400;DHT22;45045;45.440;9.178;2024-02-15T01:17:47;13.30;99.90
32400;DHT22;45045;45.440;9.178;2024-02-15T01:20:12;13.30;99.90
32400;DHT22;45045;45.440;9.178;2024-02-15T01:22:38;13.30;99.90
32400;DHT22;45045;45.440;9.178;2024-02-15T01:25:04;13.20;99.90
32400;DHT22;45045;45.440;9.178;2024-02-15T01:27:29;13.10;99.90
32400;DHT22;45045;45.440;9.178;2024-02-15T01:29:58;13.20;99.90
32400;DHT22;45045;45.440;9.178;2024-02-15T01:32:24;13.20;99.90
32400;DHT22;45045;45.440;9.178;2024-02-15T01:34:51;13.10;99.90
32400;DHT22;45045;45.440;9.178;2024-02-15T01:37:20;13.00;99.90
32400;DHT22;45045;45.440;9.178;2024-02-15T01:39:46;13.10;99.90
32400;DHT22;45045;45.440;9.178;2024-02-15T01:42:11;13.00;99.90
32400;DHT22;45045;45.440;9.178;2024-02-15T01:44:42;13.00;99.90
32400;DHT22;45045;45.440;9.178;2024-02-15T01:47:10;13.00;99.90
32400;DHT22;45045;45.440;9.178;2024-02-15T01:49:36;13.00;99.90
32400;DHT22;45045;45.440;9.178;2024-02-15T01:52:05;13.00;99.90
32400;DHT22;45045;45.440;9.178;2024-02-15T01:54:34;13.00;99.90
32400;DHT22;45045;45.440;9.178;2024-02-15T01:57:01;12.90;99.90
32400;DHT22;45045;45.440;9.178;2024-02-15T01:59:28;13.00;99.90
32400;DHT22;45045;45.440;9.178;2024-02-15T02:01:54;13.00;99.90
32400;DHT22;45045;45.440;9.178;2024-02-15T02:04:21;12.90;99.90
32400;DHT22;45045;45.440;9.178;2024-02-15T02:06:46;12.90;99.90
32400;DHT22;45045;45.440;9.178;2024-02-15T02:09:12;12.90;99.90
32400;DHT22;45045;45.440;9.178;2024-02-15T02:11:39;12.90;99.90
32400;DHT22;45045;45.440;9.178;2024-02-15T02:14:05;12.90;99.90
32400;DHT22;45045;45.440;9.178;2024-02-15T02:16:31;12.90;99.90
32400;DHT22;45045;45.440;9.178;2024-02-15T02:18:58;12.80;99.90
32400;DHT22;45045;45.440;9.178;2024-02-15T02:21:36;12.80;99.90
32400;DHT22;45045;45.440;9.178;2024-02-15T02:24:09;12.80;99.90
32400;DHT22;45045;45.440;9.178;2024-02-15T02:26:38;12.80;99.90
32400;DHT22;45045;45.440;9.178;2024-02-15T02:29:03;12.80;99.90
32400;DHT22;45045;45.440;9.178;2024-02-15T02:31:35;12.70;99.90
32400;DHT22;45045;45.440;9.178;2024-02-15T02:34:01;12.70;99.90
32400;DHT22;45045;45.440;9.178;2024-02-15T02:36:27;12.70;99.90
32400;DHT22;45045;45.440;9.178;2024-02-15T02:38:54;12.70;99.90
32400;DHT22;45045;45.440;9.178;2024-02-15T02:41:20;12.70;99.90
32400;DHT22;45045;45.440;9.178;2024-02-15T02:43:46;12.70;99.90
32400;DHT22;45045;45.440;9.178;2024-02-15T02:46:12;12.60;99.90
32400;DHT22;45045;45.440;9.178;2024-02-15T02:48:39;12.60;99.90
32400;DHT22;45045;45.440;9.178;2024-02-15T02:51:06;12.60;99.90
32400;DHT22;45045;45.440;9.178;2024-02-15T02:53:32;12.60;99.90
32400;DHT22;45045;45.440;9.178;2024-02-15T02:55:57;12.60;99.90
32400;DHT22;45045;45.440;9.178;2024-02-15T02:58:23;12.60;99.90
32400;DHT22;45045;45.440;9.178;2024-02-15T03:00:49;12.50;99.90
32400;DHT22;45045;45.440;9.178;2024-02-15T03:03:16;12.50;99.90
32400;DHT22;45045;45.440;9.178;2024-02-15T03:05:44;12.50;99.90
32400;DHT22;45045;45.440;9.178;2024-02-15T03:08:13;12.50;99.90
32400;DHT22;45045;45.440;9.178;2024-02-15T03:10:59;12.50;99.90
32400;DHT22;45045;45.440;9.178;2024-02-15T03:13:25;12.50;99.90
32400;DHT22;45045;45.440;9.178;2024-02-15T03:15:53;12.50;99.90
32400;DHT22;45045;45.440;9.178;2024-02-15T03:18:19;12.50;99.90
32400;DHT22;45045;45.440;9.178;2024-02-15T03:20:44;12.50;99.90
32400;DHT22;45045;45.440;9.178;2024-02-15T03:23:13;12.40;99.90
32400;DHT22;45045;45.440;9.178;2024-02-15T03:25:39;12.30;99.90
32400;DHT22;45045;45.440;9.178;2024-02-15T03:28:05;12.30;99.90
32400;DHT22;45045;45.440;9.178;2024-02-15T03:30:31;12.30;99.90
32400;DHT22;45045;45.440;9.178;2024-02-15T03:32:58;12.30;99.90
32400;DHT22;45045;45.440;9.178;2024-02-15T03:35:27;12.30;99.90
32400;DHT22;45045;45.440;9.178;2024-02-15T03:37:57;12.30;99.90
32400;DHT22;45045;45.440;9.178;2024-02-15T03:40:22;12.20;99.90
32400;DHT22;45045;45.440;9.178;2024-02-15T03:42:52;12.20;99.90
32400;DHT22;45045;45.440;9.178;2024-02-15T03:45:18;12.20;99.90
32400;DHT22;45045;45.440;9.178;2024-02-15T03:47:44;12.20;99.90
32400;DHT22;45045;45.440;9.178;2024-02-15T03:50:13;12.10;99.90
32400;DHT22;45045;45.440;9.178;2024-02-15T03:52:40;12.10;99.90
32400;DHT22;45045;45.440;9.178;2024-02-15T03:55:06;12.00;99.90
32400;DHT22;45045;45.440;9.178;2024-02-15T03:57:33;11.90;99.90
32400;DHT22;45045;45.440;9.178;2024-02-15T03:59:59;11.90;99.90
32400;DHT22;45045;45.440;9.178;2024-02-15T04:02:25;11.80;99.90
32400;DHT22;45045;45.440;9.178;2024-02-15T04:04:56;11.80;99.90
32400;DHT22;45045;45.440;9.178;2024-02-15T04:07:22;11.70;99.90
32400;DHT22;45045;45.440;9.178;2024-02-15T04:09:49;11.70;99.90
32400;DHT22;45045;45.440;9.178;2024-02-15T04:12:15;11.60;99.90
32400;DHT22;45045;45.440;9.178;2024-02-15T04:14:43;11.60;99.90
32400;DHT22;45045;45.440;9.178;2024-02-15T04:17:10;11.70;99.90
32400;DHT22;45045;45.440;9.178;2024-02-15T04:19:36;11.70;99.90
32400;DHT22;45045;45.440;9.178;2024-02-15T04:22:02;11.70;99.90
32400;DHT22;45045;45.440;9.178;2024-02-15T04:24:33;11.60;99.90
32400;DHT22;45045;45.440;9.178;2024-02-15T04:27:00;11.60;99.90
32400;DHT22;45045;45.440;9.178;2024-02-15T04:29:25;11.60;99.90
32400;DHT22;45045;45.440;9.178;2024-02-15T04:31:51;11.60;99.90
32400;DHT22;45045;45.440;9.178;2024-02-15T04:34:17;11.60;99.90
32400;DHT22;45045;45.440;9.178;2024-02-15T04:36:46;11.50;99.90
32400;DHT22;45045;45.440;9.178;2024-02-15T04:39:15;11.50;99.90
32400;DHT22;45045;45.440;9.178;2024-02-15T04:41:52;11.50;99.90
32400;DHT22;45045;45.440;9.178;2024-02-15T04:44:18;11.50;99.90
32400;DHT22;45045;45.440;9.178;2024-02-15T04:46:46;11.50;99.90
32400;DHT22;45045;45.440;9.178;2024-02-15T04:49:13;11.50;99.90
32400;DHT22;45045;45.440;9.178;2024-02-15T04:51:39;11.50;99.90
32400;DHT22;45045;45.440;9.178;2024-02-15T04:54:07;11.50;99.90
32400;DHT22;45045;45.440;9.178;2024-02-15T04:56:33;11.50;99.90
32400;DHT22;45045;45.440;9.178;2024-02-15T04:58:59;11.50;99.90
32400;DHT22;45045;45.440;9.178;2024-02-15T05:01:24;11.50;99.90
32400;DHT22;45045;45.440;9.178;2024-02-15T05:03:50;11.40;99.90
32400;DHT22;45045;45.440;9.178;2024-02-15T05:06:15;11.30;99.90
32400;DHT22;45045;45.440;9.178;2024-02-15T05:08:41;11.30;99.90
32400;DHT22;45045;45.440;9.178;2024-02-15T05:11:12;11.30;99.90
32400;DHT22;45045;45.440;9.178;2024-02-15T05:13:43;11.30;99.90
32400;DHT22;45045;45.440;9.178;2024-02-15T05:16:10;11.20;99.90
32400;DHT22;45045;45.440;9.178;2024-02-15T05:18:36;11.20;99.90
32400;DHT22;45045;45.440;9.178;2024-02-15T05:21:03;11.20;99.90
32400;DHT22;45045;45.440;9.178;2024-02-15T05:23:30;11.20;99.90
32400;DHT22;45045;45.440;9.178;2024-02-15T05:25:55;11.30;99.90
32400;DHT22;45045;45.440;9.178;2024-02-15T05:28:22;11.40;99.90
32400;DHT22;45045;45.440;9.178;2024-02-15T05:31:15;11.40;99.90
32400;DHT22;45045;45.440;9.178;2024-02-15T05:33:43;11.40;99.90
32400;DHT22;45045;45.440;9.178;2024-02-15T05:36:12;11.40;99.90
32400;DHT22;45045;45.440;9.178;2024-02-15T05:38:39;11.30;99.90
32400;DHT22;45045;45.440;9.178;2024-02-15T05:41:04;11.30;99.90
32400;DHT22;45045;45.440;9.178;2024-02-15T05:43:31;11.30;99.90
32400;DHT22;45045;45.440;9.178;2024-02-15T05:45:57;11.30;99.90
32400;DHT22;45045;45.440;9.178;2024-02-15T05:48:26;11.30;99.90
32400;DHT22;45045;45.440;9.178;2024-02-15T05:50:51;11.30;99.90
32400;DHT22;45045;45.440;9.178;2024-02-15T05:53:19;11.20;99.90
32400;DHT22;45045;45.440;9.178;2024-02-15T05:55:45;11.20;99.90
32400;DHT22;45045;45.440;9.178;2024-02-15T05:58:11;11.20;99.90
32400;DHT22;45045;45.440;9.178;2024-02-15T06:00:39;11.20;99.90
32400;DHT22;45045;45.440;9.178;2024-02-15T06:03:06;11.20;99.90
32400;DHT22;45045;45.440;9.178;2024-02-15T06:05:32;11.20;99.90
32400;DHT22;45045;45.440;9.178;2024-02-15T06:08:00;11.20;99.90
32400;DHT22;45045;45.440;9.178;2024-02-15T06:10:26;11.30;99.90
32400;DHT22;45045;45.440;9.178;2024-02-15T06:12:52;11.20;99.90
32400;DHT22;45045;45.440;9.178;2024-02-15T06:15:17;11.20;99.90
32400;DHT22;45045;45.440;9.178;2024-02-15T06:17:44;11.20;99.90
32400;DHT22;45045;45.440;9.178;2024-02-15T06:20:13;11.20;99.90
32400;DHT22;45045;45.440;9.178;2024-02-15T06:22:47;11.30;99.90
32400;DHT22;45045;45.440;9.178;2024-02-15T06:25:13;11.10;99.90
32400;DHT22;45045;45.440;9.178;2024-02-15T06:27:40;11.10;99.90
32400;DHT22;45045;45.440;9.178;2024-02-15T06:30:11;11.00;99.90
32400;DHT22;45045;45.440;9.178;2024-02-15T06:32:55;11.00;99.90
32400;DHT22;45045;45.440;9.178;2024-02-15T06:35:39;11.00;99.90
32400;DHT22;45045;45.440;9.178;2024-02-15T06:38:25;11.00;99.90
32400;DHT22;45045;45.440;9.178;2024-02-15T06:41:09;11.00;99.90
32400;DHT22;45045;45.440;9.178;2024-02-15T06:43:35;10.90;99.90
32400;DHT22;45045;45.440;9.178;2024-02-15T06:46:02;11.00;99.90
32400;DHT22;45045;45.440;9.178;2024-02-15T06:48:28;11.00;99.90
32400;DHT22;45045;45.440;9.178;2024-02-15T06:50:57;11.00;99.90
32400;DHT22;45045;45.440;9.178;2024-02-15T06:53:26;11.00;99.90
32400;DHT22;45045;45.440;9.178;2024-02-15T06:55:54;11.00;99.90
32400;DHT22;45045;45.440;9.178;2024-02-15T06:58:25;11.00;99.90
32400;DHT22;45045;45.440;9.178;2024-02-15T07:00:50;11.00;99.90
32400;DHT22;45045;45.440;9.178;2024-02-15T07:03:16;11.10;99.90
32400;DHT22;45045;45.440;9.178;2024-02-15T07:05:43;11.30;99.90
32400;DHT22;45045;45.440;9.178;2024-02-15T07:08:09;11.30;99.90
32400;DHT22;45045;45.440;9.178;2024-02-15T07:10:38;11.30;99.90
32400;DHT22;45045;45.440;9.178;2024-02-15T07:13:04;11.40;99.90
32400;DHT22;45045;45.440;9.178;2024-02-15T07:15:32;11.60;99.90
32400;DHT22;45045;45.440;9.178;2024-02-15T07:18:01;12.70;99.90
32400;DHT22;45045;45.440;9.178;2024-02-15T07:20:26;13.60;99.90
32400;DHT22;45045;45.440;9.178;2024-02-15T07:22:52;14.40;99.90
32400;DHT22;45045;45.440;9.178;2024-02-15T07:25:18;15.00;99.90
32400;DHT22;45045;45.440;9.178;2024-02-15T07:27:47;15.50;99.90
32400;DHT22;45045;45.440;9.178;2024-02-15T07:30:13;15.80;99.90
32400;DHT22;45045;45.440;9.178;2024-02-15T07:32:42;16.00;99.90
32400;DHT22;45045;45.440;9.178;2024-02-15T07:35:08;16.10;99.90
32400;DHT22;45045;45.440;9.178;2024-02-15T07:37:39;16.30;99.90
32400;DHT22;45045;45.440;9.178;2024-02-15T07:40:12;16.40;99.90
32400;DHT22;45045;45.440;9.178;2024-02-15T07:42:39;16.50;99.90
32400;DHT22;45045;45.440;9.178;2024-02-15T07:45:07;16.50;99.90
32400;DHT22;45045;45.440;9.178;2024-02-15T07:47:33;16.50;99.90
32400;DHT22;45045;45.440;9.178;2024-02-15T07:49:59;16.50;99.90
32400;DHT22;45045;45.440;9.178;2024-02-15T07:52:28;16.40;99.90
32400;DHT22;45045;45.440;9.178;2024-02-15T07:54:54;16.30;99.90
32400;DHT22;45045;45.440;9.178;2024-02-15T07:57:20;15.90;99.90
32400;DHT22;45045;45.440;9.178;2024-02-15T07:59:49;15.50;99.90
32400;DHT22;45045;45.440;9.178;2024-02-15T08:02:14;15.60;99.90
32400;DHT22;45045;45.440;9.178;2024-02-15T08:04:43;15.80;99.90
32400;DHT22;45045;45.440;9.178;2024-02-15T08:07:10;16.10;99.90
32400;DHT22;45045;45.440;9.178;2024-02-15T08:09:40;16.30;99.90
32400;DHT22;45045;45.440;9.178;2024-02-15T08:12:07;16.40;99.90
32400;DHT22;45045;45.440;9.178;2024-02-15T08:14:32;16.60;99.90
32400;DHT22;45045;45.440;9.178;2024-02-15T08:16:58;16.60;99.90
32400;DHT22;45045;45.440;9.178;2024-02-15T08:19:24;16.70;99.90
32400;DHT22;45045;45.440;9.178;2024-02-15T08:21:49;16.80;99.90
32400;DHT22;45045;45.440;9.178;2024-02-15T08:24:16;16.90;99.90
32400;DHT22;45045;45.440;9.178;2024-02-15T08:26:42;17.00;99.90
32400;DHT22;45045;45.440;9.178;2024-02-15T08:29:08;17.20;99.90
32400;DHT22;45045;45.440;9.178;2024-02-15T08:31:35;17.40;99.90
32400;DHT22;45045;45.440;9.178;2024-02-15T08:34:03;17.60;99.90
32400;DHT22;45045;45.440;9.178;2024-02-15T08:36:35;17.70;99.90
32400;DHT22;45045;45.440;9.178;2024-02-15T08:39:01;17.80;99.90
32400;DHT22;45045;45.440;9.178;2024-02-15T08:41:27;17.90;99.90
32400;DHT22;45045;45.440;9.178;2024-02-15T08:43:53;18.00;99.90
32400;DHT22;45045;45.440;9.178;2024-02-15T08:46:19;18.10;99.90
32400;DHT22;45045;45.440;9.178;2024-02-15T08:48:47;18.30;99.90
32400;DHT22;45045;45.440;9.178;2024-02-15T08:51:13;18.30;99.90
32400;DHT22;45045;45.440;9.178;2024-02-15T08:53:38;18.20;99.90
32400;DHT22;45045;45.440;9.178;2024-02-15T08:56:04;18.10;99.90
32400;DHT22;45045;45.440;9.178;2024-02-15T08:58:30;18.10;99.90
32400;DHT22;45045;45.440;9.178;2024-02-15T09:00:57;18.00;99.60
32400;DHT22;45045;45.440;9.178;2024-02-15T09:03:22;17.40;99.90
32400;DHT22;45045;45.440;9.178;2024-02-15T09:05:48;17.10;99.90
32400;DHT22;45045;45.440;9.178;2024-02-15T09:08:14;17.10;99.90
32400;DHT22;45045;45.440;9.178;2024-02-15T09:10:41;17.30;99.90
32400;DHT22;45045;45.440;9.178;2024-02-15T09:13:08;17.70;99.90
32400;DHT22;45045;45.440;9.178;2024-02-15T09:15:34;17.90;99.90
32400;DHT22;45045;45.440;9.178;2024-02-15T09:17:59;17.90;99.90
32400;DHT22;45045;45.440;9.178;2024-02-15T09:20:25;17.60;99.90
32400;DHT22;45045;45.440;9.178;2024-02-15T09:22:54;17.50;99.90
32400;DHT22;45045;45.440;9.178;2024-02-15T09:25:21;17.30;99.90
32400;DHT22;45045;45.440;9.178;2024-02-15T09:27:50;17.20;99.90
32400;DHT22;45045;45.440;9.178;2024-02-15T09:30:17;17.10;99.90
32400;DHT22;45045;45.440;9.178;2024-02-15T09:32:43;16.90;99.90
32400;DHT22;45045;45.440;9.178;2024-02-15T09:35:10;16.60;99.90
32400;DHT22;45045;45.440;9.178;2024-02-15T09:37:44;16.30;99.90
32400;DHT22;45045;45.440;9.178;2024-02-15T09:40:11;16.20;99.90
32400;DHT22;45045;45.440;9.178;2024-02-15T09:42:38;16.30;99.90
32400;DHT22;45045;45.440;9.178;2024-02-15T09:45:05;16.30;99.90
32400;DHT22;45045;45.440;9.178;2024-02-15T09:47:35;16.30;99.90
32400;DHT22;45045;45.440;9.178;2024-02-15T09:50:13;16.50;99.90
32400;DHT22;45045;45.440;9.178;2024-02-15T09:52:40;16.60;99.90
32400;DHT22;45045;45.440;9.178;2024-02-15T09:55:07;16.70;99.90
32400;DHT22;45045;45.440;9.178;2024-02-15T09:57:45;16.60;99.90
32400;DHT22;45045;45.440;9.178;2024-02-15T10:00:12;16.70;99.90
32400;DHT22;45045;45.440;9.178;2024-02-15T10:02:43;17.10;99.90
32400;DHT22;45045;45.440;9.178;2024-02-15T10:05:10;17.30;99.90
32400;DHT22;45045;45.440;9.178;2024-02-15T10:07:40;17.70;99.90
32400;DHT22;45045;45.440;9.178;2024-02-15T10:10:20;17.90;99.90
32400;DHT22;45045;45.440;9.178;2024-02-15T10:12:55;17.90;99.90
32400;DHT22;45045;45.440;9.178;2024-02-15T10:15:28;18.40;99.90
32400;DHT22;45045;45.440;9.178;2024-02-15T10:17:55;18.60;99.90
32400;DHT22;45045;45.440;9.178;2024-02-15T10:20:22;18.90;99.90
32400;DHT22;45045;45.440;9.178;2024-02-15T10:22:52;19.10;98.60
32400;DHT22;45045;45.440;9.178;2024-02-15T10:25:20;18.90;98.00
32400;DHT22;45045;45.440;9.178;2024-02-15T10:27:48;18.50;98.20
32400;DHT22;45045;45.440;9.178;2024-02-15T10:30:18;18.10;98.70
32400;DHT22;45045;45.440;9.178;2024-02-15T10:32:45;17.80;98.60
32400;DHT22;45045;45.440;9.178;2024-02-15T10:35:19;17.50;99.20
32400;DHT22;45045;45.440;9.178;2024-02-15T10:37:44;17.40;99.90
32400;DHT22;45045;45.440;9.178;2024-02-15T10:40:10;17.30;99.90
32400;DHT22;45045;45.440;9.178;2024-02-15T10:42:40;17.10;99.90
32400;DHT22;45045;45.440;9.178;2024-02-15T10:45:08;17.00;99.90
32400;DHT22;45045;45.440;9.178;2024-02-15T10:47:37;16.80;99.90
32400;DHT22;45045;45.440;9.178;2024-02-15T10:50:06;16.80;99.90
32400;DHT22;45045;45.440;9.178;2024-02-15T10:52:32;16.80;99.90
32400;DHT22;45045;45.440;9.178;2024-02-15T10:55:04;16.70;99.90
32400;DHT22;45045;45.440;9.178;2024-02-15T10:57:37;16.70;99.90
32400;DHT22;45045;45.440;9.178;2024-02-15T11:00:06;16.70;99.90
32400;DHT22;45045;45.440;9.178;2024-02-15T11:02:42;16.70;99.90
32400;DHT22;45045;45.440;9.178;2024-02-15T11:05:11;16.80;99.90
32400;DHT22;45045;45.440;9.178;2024-02-15T11:07:40;16.70;99.90
32400;DHT22;45045;45.440;9.178;2024-02-15T11:10:09;16.60;99.90
32400;DHT22;45045;45.440;9.178;2024-02-15T11:12:36;16.70;99.90
32400;DHT22;45045;45.440;9.178;2024-02-15T11:15:03;16.60;99.90
32400;DHT22;45045;45.440;9.178;2024-02-15T11:20:10;16.60;99.90
32400;DHT22;45045;45.440;9.178;2024-02-15T11:22:56;16.50;99.90
32400;DHT22;45045;45.440;9.178;2024-02-15T11:25:32;16.50;99.90
32400;DHT22;45045;45.440;9.178;2024-02-15T11:30:51;16.30;99.90
32400;DHT22;45045;45.440;9.178;2024-02-15T11:33:33;16.30;99.90
32400;DHT22;45045;45.440;9.178;2024-02-15T11:36:12;16.40;99.90
32400;DHT22;45045;45.440;9.178;2024-02-15T11:38:40;16.40;99.90
32400;DHT22;45045;45.440;9.178;2024-02-15T11:41:09;16.30;99.90
32400;DHT22;45045;45.440;9.178;2024-02-15T11:43:48;16.50;99.90
32400;DHT22;45045;45.440;9.178;2024-02-15T11:46:22;16.70;99.90
32400;DHT22;45045;45.440;9.178;2024-02-15T11:48:50;17.20;99.90
32400;DHT22;45045;45.440;9.178;2024-02-15T11:51:25;17.50;99.90
32400;DHT22;45045;45.440;9.178;2024-02-15T11:56:25;17.30;99.90
32400;DHT22;45045;45.440;9.178;2024-02-15T11:59:02;17.30;99.90
32400;DHT22;45045;45.440;9.178;2024-02-15T12:01:31;17.30;99.90
32400;DHT22;45045;45.440;9.178;2024-02-15T12:04:15;17.40;99.90
32400;DHT22;45045;45.440;9.178;2024-02-15T12:06:59;17.60;99.90
32400;DHT22;45045;45.440;9.178;2024-02-15T12:09:43;17.70;99.90
32400;DHT22;45045;45.440;9.178;2024-02-15T12:12:27;17.70;99.90
32400;DHT22;45045;45.440;9.178;2024-02-15T12:15:11;17.90;99.90
32400;DHT22;45045;45.440;9.178;2024-02-15T12:18:13;18.20;99.90
32400;DHT22;45045;45.440;9.178;2024-02-15T12:20:57;18.40;99.40
32400;DHT22;45045;45.440;9.178;2024-02-15T12:23:23;18.40;99.60
32400;DHT22;45045;45.440;9.178;2024-02-15T12:25:52;18.50;99.50
32400;DHT22;45045;45.440;9.178;2024-02-15T12:28:18;18.40;99.20
32400;DHT22;45045;45.440;9.178;2024-02-15T12:30:44;18.20;99.20
32400;DHT22;45045;45.440;9.178;2024-02-15T12:33:11;18.10;98.80
32400;DHT22;45045;45.440;9.178;2024-02-15T12:35:37;18.10;98.90
32400;DHT22;45045;45.440;9.178;2024-02-15T12:38:04;17.90;98.90
32400;DHT22;45045;45.440;9.178;2024-02-15T12:40:38;17.70;99.00
32400;DHT22;45045;45.440;9.178;2024-02-15T12:43:09;17.80;98.80
32400;DHT22;45045;45.440;9.178;2024-02-15T12:45:36;17.80;98.80
32400;DHT22;45045;45.440;9.178;2024-02-15T12:48:06;17.90;99.00
32400;DHT22;45045;45.440;9.178;2024-02-15T12:50:32;17.90;98.50
32400;DHT22;45045;45.440;9.178;2024-02-15T12:52:58;18.00;98.10
32400;DHT22;45045;45.440;9.178;2024-02-15T12:55:38;17.90;97.80
32400;DHT22;45045;45.440;9.178;2024-02-15T12:58:06;17.90;97.70
32400;DHT22;45045;45.440;9.178;2024-02-15T13:00:35;17.90;97.90
32400;DHT22;45045;45.440;9.178;2024-02-15T13:03:04;18.10;97.80
32400;DHT22;45045;45.440;9.178;2024-02-15T13:05:31;18.10;98.10
32400;DHT22;45045;45.440;9.178;2024-02-15T13:07:57;18.10;98.60
32400;DHT22;45045;45.440;9.178;2024-02-15T13:10:30;18.00;98.80
32400;DHT22;45045;45.440;9.178;2024-02-15T13:12:57;17.80;99.50
32400;DHT22;45045;45.440;9.178;2024-02-15T13:15:24;17.80;99.30
32400;DHT22;45045;45.440;9.178;2024-02-15T13:17:56;17.70;99.50
32400;DHT22;45045;45.440;9.178;2024-02-15T13:20:22;17.70;99.80
32400;DHT22;45045;45.440;9.178;2024-02-15T13:23:05;17.70;99.70
32400;DHT22;45045;45.440;9.178;2024-02-15T13:25:51;17.80;99.30
32400;DHT22;45045;45.440;9.178;2024-02-15T13:28:17;18.00;98.90
32400;DHT22;45045;45.440;9.178;2024-02-15T13:30:44;17.90;98.80
32400;DHT22;45045;45.440;9.178;2024-02-15T13:33:13;17.90;98.60
32400;DHT22;45045;45.440;9.178;2024-02-15T13:35:39;17.90;98.50
32400;DHT22;45045;45.440;9.178;2024-02-15T13:38:05;17.90;97.80
32400;DHT22;45045;45.440;9.178;2024-02-15T13:40:34;18.00;97.80
32400;DHT22;45045;45.440;9.178;2024-02-15T13:43:01;18.20;97.20
32400;DHT22;45045;45.440;9.178;2024-02-15T13:45:32;18.30;96.90
32400;DHT22;45045;45.440;9.178;2024-02-15T13:48:01;18.30;96.40
32400;DHT22;45045;45.440;9.178;2024-02-15T13:50:29;18.40;95.80
32400;DHT22;45045;45.440;9.178;2024-02-15T13:52:55;18.40;95.90
32400;DHT22;45045;45.440;9.178;2024-02-15T13:55:21;18.70;95.80
32400;DHT22;45045;45.440;9.178;2024-02-15T13:57:47;18.90;95.00
32400;DHT22;45045;45.440;9.178;2024-02-15T14:00:15;19.00;94.40
32400;DHT22;45045;45.440;9.178;2024-02-15T14:02:53;18.90;94.30
32400;DHT22;45045;45.440;9.178;2024-02-15T14:05:20;18.80;94.80
32400;DHT22;45045;45.440;9.178;2024-02-15T14:07:47;18.90;95.00
32400;DHT22;45045;45.440;9.178;2024-02-15T14:10:15;18.80;95.30
32400;DHT22;45045;45.440;9.178;2024-02-15T14:12:40;19.10;99.10
32400;DHT22;45045;45.440;9.178;2024-02-15T14:15:06;19.30;96.00
32400;DHT22;45045;45.440;9.178;2024-02-15T14:17:32;19.60;99.70
32400;DHT22;45045;45.440;9.178;2024-02-15T14:19:58;19.70;99.90
32400;DHT22;45045;45.440;9.178;2024-02-15T14:22:24;19.90;99.00
32400;DHT22;45045;45.440;9.178;2024-02-15T14:24:53;20.00;99.40
32400;DHT22;45045;45.440;9.178;2024-02-15T14:27:19;20.10;95.30
32400;DHT22;45045;45.440;9.178;2024-02-15T14:29:45;20.10;98.40
32400;DHT22;45045;45.440;9.178;2024-02-15T14:32:30;20.10;99.00
32400;DHT22;45045;45.440;9.178;2024-02-15T14:35:14;20.10;94.60
32400;DHT22;45045;45.440;9.178;2024-02-15T14:37:42;19.80;94.00
32400;DHT22;45045;45.440;9.178;2024-02-15T14:40:08;19.50;94.50
32400;DHT22;45045;45.440;9.178;2024-02-15T14:42:34;19.20;94.90
32400;DHT22;45045;45.440;9.178;2024-02-15T14:45:01;19.60;97.40
32400;DHT22;45045;45.440;9.178;2024-02-15T14:47:27;19.80;98.30
32400;DHT22;45045;45.440;9.178;2024-02-15T14:49:52;19.90;98.60
32400;DHT22;45045;45.440;9.178;2024-02-15T14:52:18;20.00;98.70
32400;DHT22;45045;45.440;9.178;2024-02-15T14:54:43;19.70;95.90
32400;DHT22;45045;45.440;9.178;2024-02-15T14:57:09;19.60;97.70
32400;DHT22;45045;45.440;9.178;2024-02-15T14:59:35;19.50;97.30
32400;DHT22;45045;45.440;9.178;2024-02-15T15:02:02;19.70;97.40
32400;DHT22;45045;45.440;9.178;2024-02-15T15:04:34;19.40;96.70
32400;DHT22;45045;45.440;9.178;2024-02-15T15:07:13;18.90;97.90
32400;DHT22;45045;45.440;9.178;2024-02-15T15:09:57;18.80;97.70
32400;DHT22;45045;45.440;9.178;2024-02-15T15:12:41;18.80;98.20
32400;DHT22;45045;45.440;9.178;2024-02-15T15:15:11;18.70;98.00
32400;DHT22;45045;45.440;9.178;2024-02-15T15:17:38;18.30;98.70
32400;DHT22;45045;45.440;9.178;2024-02-15T15:20:05;18.20;98.90
32400;DHT22;45045;45.440;9.178;2024-02-15T15:22:34;18.00;99.50
32400;DHT22;45045;45.440;9.178;2024-02-15T15:25:00;17.80;99.80
32400;DHT22;45045;45.440;9.178;2024-02-15T15:27:34;17.70;99.90
32400;DHT22;45045;45.440;9.178;2024-02-15T15:30:05;17.70;99.90
32400;DHT22;45045;45.440;9.178;2024-02-15T15:32:31;17.60;99.90
32400;DHT22;45045;45.440;9.178;2024-02-15T15:34:56;17.50;99.90
32400;DHT22;45045;45.440;9.178;2024-02-15T15:37:22;17.40;99.90
32400;DHT22;45045;45.440;9.178;2024-02-15T15:39:49;17.40;99.90
32400;DHT22;45045;45.440;9.178;2024-02-15T15:42:15;17.30;99.90
32400;DHT22;45045;45.440;9.178;2024-02-15T15:44:41;17.40;99.90
32400;DHT22;45045;45.440;9.178;2024-02-15T15:47:07;17.20;99.90